Weather at Benina International Airport

Public forecast

Using degrees Celsius for public forecast. Weather courtesy of forecast.io.

Closest aviation weather report (METAR) to Benina International Airport

Closest report is Chania International Airport, 282.8 nm (523.7 km) NE.

2024/05/28 04:50 (retrieved 31 minutes ago)

LGSA 280450Z VRB03KT CAVOK 18/13 Q1015

Closest aviation forecast (TAF) to Benina International Airport

Forecast is more than 12 hours old.

Closest forecast is Crotone Airport, 442.5 nm (819.6 km) NNW.

2024/05/27 12:09 (retrieved 17 hours ago)

TAF TAF LIBC 271702Z 2712/2812 CNL